RORT(METAR)
08/23 16:00
RORT 230700Z 09009KT 8000 SCTXXX 30/27 Q1005 RMK A2969=
戻る
トップページへ戻る
IMOC Co,.Ltd.